TNCATNCB

Guest
Details From TNCA - REINA BEATRIX INTL
To TNCB - Bonaire Flamingo
Flight Number -
Tags generated
Created
Modified
Stats Distance 105 nm / 195 km
Max Altitude 1,500 ft / 457 m
Waypoints 3
Social Downloads 1
Likes 0
Share VATSIM

Download

Looking for another format? Having issues loading an existing format? Contact us
Advertisement - Login to hide

Notes

Basic altitude profile: - Ascent Rate: 2500ft/min - Ascent Speed: 250kts - Cruise Altitude: 35000ft - Cruise Speed: 420kts - Descent Rate: 1500ft/min - Descent Speed: 250kts

Route

TNCA ABA TNCB

ID Type Via Altitude Latitude Longitude Leg Dist Tot Dist Heading (true) Name
O TNCA APT - 0 ft / 0 m 12.50139˚ -70.01522˚ - 0 nm - REINA BEATRIX INTL
ABA VOR - 1,500 ft / 457 m 12.50567˚ -69.94311˚ 4 nm 4 nm 87° / 87° ARUBA VOR-DME
O TNCB APT - 0 ft / 0 m 12.13105˚ -68.26851˚ 100 nm 105 nm 103° / 103° Bonaire Flamingo

Altitude Profile

Advertisement - Login to hide

TNCA

Details ICAO TNCA (AUA)
Name REINA BEATRIX INTL
Region Caribbean Netherlands, Aruba, Curaçao, Sint Maarten
Timezone America/Aruba (UTC-4.0)
Stats Elevation 60 ft / 18 m (AMSL)
Location 12.501389° -70.015220°
Runways 1
Magnetic Variation 10.770° W

METAR

TNCA 120000Z 04004KT 9999 FEW017 27/24 Q1011 A2987 NOSIG

Decode

TAF

TAF TNCA 111530Z 1118/1218 07008KT 9999 SCT022 TEMPO 1118/1218 VRB05KT

Decode

Departure Runways

ID Width Length Bearing (true) Bearing (mag) Surface Threshold Offset Overrun Length
11 148 ft / 45 m 8,998 ft / 2,743 m 104.08° 114.85° Asphalt 0 ft / 0 m 184 ft / 56 m
29 148 ft / 45 m 8,998 ft / 2,743 m 284.09° 294.86° Asphalt 0 ft / 0 m 184 ft / 56 m

TNCB

Details ICAO TNCB (BON)
Name Bonaire Flamingo
Region Caribbean Netherlands, Aruba, Curaçao, Sint Maarten
Timezone America/Curacao (UTC-4.0)
Stats Elevation 20 ft / 6 m (AMSL)
Location 12.131046° -68.268511°
Runways 1
Magnetic Variation 11.703° W

METAR

TNCB 112355Z AUTO 04004KT 010V070 9999 NCD 25/22 Q1011

Decode

TAF

TAF TNCB 112256Z 1200/1306 08008KT 9999 SCT018

Decode

Destination Runways

ID Width Length Bearing (true) Bearing (mag) Surface Threshold Offset Overrun Length
10 148 ft / 45 m 9,451 ft / 2,881 m 91.75° 103.45° Asphalt 0 ft / 0 m 0 ft / 0 m
28 148 ft / 45 m 9,451 ft / 2,881 m 271.76° 283.46° Asphalt 0 ft / 0 m 200 ft / 61 m

Popular Alternatives